Strona główna
METAR-TAF:

METAR-TAF

Lotnisko :

Warkala, Algieria

Szerokość geograficzna: 31-55N, Długość geograficzna: 005-24E, wysokość: 141 m

METAR: brakujący

czas: 00:28 (23:28 UTC)

Prognoza

Raport powstał 3 godziny i 28 minut temu, godzina 20:00 UTC
Prognoza ważna od 22 godzina 21 UTC do 23 godzina 06 UTC
Wiatr 12 kt od północno-północny wschód
Widzialność 10 km lub więcej
Mało chmury na wysokości 4000 ft

TAF: DAUU 222000Z 2221/2306 02012KT 9999 FEW040

Obserwacja i prognoza pogody dla ponad 4000 lotnisk (raport METAR i TAF).

Dostępne stacje oznaczono żółtymi i czerwonymi punktami na mapie.

Najedź kursorem aby zobaczyć nazwę stacji.

Kliknij aby zobaczyć obserwacje i prognozy pogody.

Aby zmienić mapę: kliknij na zielony przycisk z czarnym krzyżykiem, aby powiększyć; na zielony przycisk z myślnikiem, aby pomniejszyć; na zielone strzałki, aby przejść do map sąsiednich.


METAR-TAF: